Time;durP1;ratioP1;P1;durP2;ratioP2;P2;SDS_P1;SDS_P2;PMS_P1;PMS_P2;Temp;Humidity;BMP_temperature;BMP_pressure;BME280_temperature;BME280_humidity;BME280_pressure;Samples;Min_cycle;Max_cycle;Signal;HPM_P1;HPM_P2
2022/04/24 00:01:58;;;;;;;21.63;10.50;;;;;;;13.93;57.51;99516.88;4895137;29;20029;-83
2022/04/24 00:04:24;;;;;;;23.23;10.60;;;;;;;14.07;57.28;99511.06;4896482;29;20037;-83
2022/04/24 00:06:53;;;;;;;25.90;11.10;;;;;;;14.25;56.81;99511.09;4896659;29;20049;-83
2022/04/24 00:09:22;;;;;;;21.70;10.52;;;;;;;14.27;56.70;99517.88;4896586;29;20029;-83
2022/04/24 00:11:48;;;;;;;23.63;10.45;;;;;;;14.28;56.62;99511.63;4896516;29;20052;-83
2022/04/24 00:14:14;;;;;;;22.77;11.10;;;;;;;14.11;57.12;99520.34;4896510;29;20025;-83
2022/04/24 00:16:41;;;;;;;24.60;10.27;;;;;;;14.25;56.68;99513.75;4896346;29;20088;-83
2022/04/24 00:19:07;;;;;;;25.05;10.77;;;;;;;14.23;56.93;99516.53;4896449;29;20479;-83
2022/04/24 00:21:32;;;;;;;18.17;9.05;;;;;;;14.35;56.36;99516.31;4896331;29;20036;-83
2022/04/24 00:23:58;;;;;;;22.52;10.15;;;;;;;14.30;56.68;99524.69;4896337;29;20076;-84
2022/04/24 00:26:23;;;;;;;33.97;10.85;;;;;;;14.14;56.81;99517.44;4896382;29;20035;-83
2022/04/24 00:28:49;;;;;;;28.20;11.00;;;;;;;13.99;57.23;99516.28;4899921;29;20130;-83
2022/04/24 00:31:14;;;;;;;26.35;9.63;;;;;;;14.03;56.86;99515.00;4900007;29;20399;-83
2022/04/24 00:33:40;;;;;;;26.05;10.60;;;;;;;14.08;57.23;99523.31;4900128;29;20033;-83
2022/04/24 00:36:05;;;;;;;23.73;11.02;;;;;;;14.11;56.78;99523.00;4899963;29;20036;-83
2022/04/24 00:38:35;;;;;;;28.48;10.43;;;;;;;14.33;56.33;99520.91;4899894;29;20031;-83
2022/04/24 00:41:00;;;;;;;27.02;10.15;;;;;;;14.32;56.25;99532.47;4899887;29;20049;-84
2022/04/24 00:43:25;;;;;;;42.55;11.30;;;;;;;14.04;56.77;99528.06;4899646;29;20143;-83
2022/04/24 00:46:32;;;;;;;18.23;10.02;;;;;;;13.79;57.61;99529.56;4910223;29;20039;-83
2022/04/24 00:48:57;;;;;;;20.10;9.93;;;;;;;13.93;57.17;99517.69;4917069;29;20077;-83
2022/04/24 00:51:23;;;;;;;26.30;10.45;;;;;;;13.85;57.81;99525.50;4918731;29;20048;-83
2022/04/24 00:53:48;;;;;;;21.40;10.75;;;;;;;13.94;57.38;99519.38;4918615;29;20032;-83
2022/04/24 00:56:14;;;;;;;25.20;11.23;;;;;;;13.84;57.34;99524.69;4918623;29;20036;-83
2022/04/24 00:58:39;;;;;;;25.98;10.50;;;;;;;13.96;57.18;99521.84;4911751;29;20028;-83
2022/04/24 01:01:04;;;;;;;25.08;10.68;;;;;;;13.68;58.04;99519.19;4898384;29;20047;-83
2022/04/24 01:03:30;;;;;;;21.10;11.00;;;;;;;13.88;57.66;99519.94;4893707;29;20059;-83
2022/04/24 01:05:56;;;;;;;28.27;10.85;;;;;;;13.65;58.16;99533.53;4899428;29;20037;-83
2022/04/24 01:08:21;;;;;;;21.13;11.35;;;;;;;13.53;58.66;99528.59;4899395;29;20368;-83
2022/04/24 01:10:47;;;;;;;27.02;10.82;;;;;;;13.82;57.69;99526.66;4899343;29;20032;-83
2022/04/24 01:13:12;;;;;;;27.08;10.82;;;;;;;13.84;57.75;99519.41;4899556;29;20028;-83
2022/04/24 01:15:37;;;;;;;25.90;10.77;;;;;;;13.84;58.04;99524.69;4899050;29;20283;-83
2022/04/24 01:18:03;;;;;;;24.77;11.05;;;;;;;13.98;57.22;99526.00;4899183;29;20059;-83
2022/04/24 01:20:28;;;;;;;26.02;11.43;;;;;;;13.49;58.68;99534.13;4899135;29;20060;-83
2022/04/24 01:22:53;;;;;;;30.05;11.35;;;;;;;13.66;58.50;99536.97;4899071;29;20514;-83
2022/04/24 01:25:19;;;;;;;24.50;10.82;;;;;;;13.81;57.92;99543.44;4899592;29;20090;-83
2022/04/24 01:27:45;;;;;;;22.60;11.20;;;;;;;13.75;58.15;99538.75;4899335;29;20043;-83
2022/04/24 01:30:11;;;;;;;22.13;10.98;;;;;;;13.76;58.18;99552.78;4898967;29;20024;-84
2022/04/24 01:32:38;;;;;;;30.08;11.07;;;;;;;13.82;57.79;99546.91;4898968;29;20440;-83
2022/04/24 01:35:05;;;;;;;22.48;10.77;;;;;;;13.87;57.67;99550.78;4897771;29;20025;-83
2022/04/24 01:37:30;;;;;;;28.52;11.75;;;;;;;13.71;58.14;99542.66;4898905;29;20024;-83
2022/04/24 01:39:56;;;;;;;31.13;10.55;;;;;;;13.69;57.96;99552.53;4898212;29;20036;-83
2022/04/24 01:42:22;;;;;;;29.55;12.07;;;;;;;13.71;58.16;99547.94;4898674;29;20028;-83
2022/04/24 01:44:47;;;;;;;28.17;11.20;;;;;;;13.75;58.19;99551.13;4898545;29;20064;-83
2022/04/24 01:47:13;;;;;;;26.85;11.50;;;;;;;13.85;57.54;99547.44;4898853;29;20039;-82
2022/04/24 01:49:39;;;;;;;26.73;11.57;;;;;;;13.83;58.04;99554.69;4898701;29;20479;-83
2022/04/24 01:52:07;;;;;;;31.30;11.45;;;;;;;13.59;58.29;99547.28;4898664;29;20033;-83
2022/04/24 01:54:33;;;;;;;26.45;10.68;;;;;;;13.68;58.19;99548.22;4898640;29;20072;-83
2022/04/24 01:56:58;;;;;;;23.25;11.90;;;;;;;13.71;58.07;99545.31;4898483;29;20032;-84
2022/04/24 01:59:24;;;;;;;30.95;11.85;;;;;;;13.47;58.37;99544.00;4898541;29;20028;-83
2022/04/24 02:01:49;;;;;;;28.52;11.38;;;;;;;13.43;58.79;99542.63;4898455;29;20424;-82
2022/04/24 02:04:16;;;;;;;22.65;11.00;;;;;;;13.23;59.67;99548.88;4897660;29;20112;-83
2022/04/24 02:06:42;;;;;;;30.85;13.85;;;;;;;13.56;58.80;99542.28;4898380;29;20086;-83
2022/04/24 02:09:07;;;;;;;24.13;11.48;;;;;;;13.46;58.79;99542.31;4898474;29;20032;-83
2022/04/24 02:11:33;;;;;;;28.80;12.20;;;;;;;13.58;58.74;99539.50;4898173;29;20080;-82
2022/04/24 02:13:58;;;;;;;18.73;10.65;;;;;;;13.46;58.93;99539.69;4898193;29;20028;-83
2022/04/24 02:16:24;;;;;;;25.10;11.75;;;;;;;13.33;59.25;99547.09;4897959;29;20046;-83
2022/04/24 02:18:49;;;;;;;27.30;11.13;;;;;;;13.41;59.21;99552.50;4898333;29;20036;-83
2022/04/24 02:21:14;;;;;;;28.30;12.43;;;;;;;13.18;59.82;99554.59;4898151;29;20048;-82
2022/04/24 02:23:40;;;;;;;20.90;10.98;;;;;;;13.54;58.89;99557.44;4898065;29;20444;-81
2022/04/24 02:26:05;;;;;;;25.02;11.40;;;;;;;13.42;59.30;99559.41;4898084;29;20096;-81
2022/04/24 02:28:31;;;;;;;23.55;11.52;;;;;;;13.42;59.26;99562.03;4897924;29;20039;-82
2022/04/24 02:30:56;;;;;;;34.22;12.68;;;;;;;13.15;60.07;99564.56;4898057;29;20166;-82
2022/04/24 02:33:21;;;;;;;25.10;12.48;;;;;;;13.15;59.83;99562.78;4898032;29;20040;-83
2022/04/24 02:35:46;;;;;;;24.45;11.05;;;;;;;13.17;59.94;99565.25;4897618;29;20040;-83
2022/04/24 02:38:12;;;;;;;22.10;12.00;;;;;;;13.33;59.85;99559.44;4897801;29;20066;-82
2022/04/24 02:40:38;;;;;;;24.30;10.77;;;;;;;13.37;59.41;99559.03;4897652;29;20505;-83
2022/04/24 02:43:03;;;;;;;32.88;11.18;;;;;;;13.52;59.07;99569.09;4898149;29;20494;-83
2022/04/24 02:45:29;;;;;;;22.05;10.45;;;;;;;13.48;59.26;99566.75;4897665;29;20383;-83
2022/04/24 02:47:54;;;;;;;26.58;10.55;;;;;;;13.61;59.24;99570.88;4897785;29;20029;-83
2022/04/24 02:50:23;;;;;;;26.23;11.32;;;;;;;13.33;59.80;99583.16;4896827;29;20028;-83
2022/04/24 02:52:50;;;;;;;30.77;11.98;;;;;;;13.27;59.33;99581.91;4897616;29;20032;-83
2022/04/24 02:55:16;;;;;;;33.55;12.40;;;;;;;13.18;59.92;99580.13;4897516;29;20468;-83
2022/04/24 02:57:43;;;;;;;20.13;11.35;;;;;;;13.13;60.06;99577.06;4896284;29;20498;-83
2022/04/24 03:00:09;;;;;;;25.73;10.60;;;;;;;13.12;60.19;99583.31;4896805;29;20495;-83
2022/04/24 03:02:42;;;;;;;31.35;10.50;;;;;;;12.85;60.73;99569.03;4897100;29;20040;-83
2022/04/24 03:05:13;;;;;;;25.33;10.40;;;;;;;13.17;59.65;99576.66;4897215;29;20036;-83
2022/04/24 03:07:38;;;;;;;25.42;10.43;;;;;;;13.24;59.93;99577.75;4897363;29;20020;-83
2022/04/24 03:10:04;;;;;;;27.80;10.95;;;;;;;13.26;59.72;99570.53;4897087;29;20115;-83
2022/04/24 03:12:29;;;;;;;24.38;11.20;;;;;;;13.33;59.37;99565.56;4897331;29;20494;-83
2022/04/24 03:14:56;;;;;;;28.33;10.75;;;;;;;13.16;60.15;99561.81;4897457;29;20017;-83
2022/04/24 03:17:21;;;;;;;21.30;10.10;;;;;;;13.23;60.00;99562.91;4897361;29;20024;-83
2022/04/24 03:19:46;;;;;;;39.97;11.73;;;;;;;13.06;60.39;99575.00;4897103;29;20387;-84
2022/04/24 03:22:11;;;;;;;28.42;11.13;;;;;;;13.12;60.28;99573.59;4897081;29;20033;-84
2022/04/24 03:24:37;;;;;;;23.70;10.77;;;;;;;13.12;60.22;99570.16;4897219;29;20430;-84
2022/04/24 03:27:03;;;;;;;27.55;11.05;;;;;;;13.00;60.80;99587.91;4897113;29;20468;-84
2022/04/24 03:29:29;;;;;;;24.20;11.07;;;;;;;12.82;61.56;99578.06;4897159;29;20021;-83
2022/04/24 03:31:54;;;;;;;25.73;11.38;;;;;;;12.81;61.17;99579.03;4878416;29;20402;-84
2022/04/24 03:34:20;;;;;;;24.00;11.30;;;;;;;12.86;60.80;99576.00;4877240;29;20033;-84
2022/04/24 03:36:46;;;;;;;27.08;11.50;;;;;;;13.00;60.44;99574.75;4878449;29;20037;-84
2022/04/24 03:39:12;;;;;;;21.65;10.43;;;;;;;13.02;60.36;99575.44;4878314;29;20028;-84
2022/04/24 03:41:38;;;;;;;26.95;11.40;;;;;;;12.71;61.26;99580.84;4878108;29;20033;-84
2022/04/24 03:44:04;;;;;;;20.45;10.13;;;;;;;12.52;62.24;99584.31;4878444;29;20104;-84
2022/04/24 03:46:30;;;;;;;24.92;11.20;;;;;;;12.74;61.01;99580.56;4878308;29;20032;-83
2022/04/24 03:48:55;;;;;;;28.63;10.80;;;;;;;12.87;60.43;99590.81;4878381;29;20033;-83
2022/04/24 03:51:21;;;;;;;23.13;10.80;;;;;;;12.69;61.54;99588.03;4878248;29;20025;-84
2022/04/24 03:53:46;;;;;;;30.75;10.95;;;;;;;12.85;60.59;99590.13;4878222;29;20035;-84
2022/04/24 03:56:11;;;;;;;25.88;14.95;;;;;;;12.32;62.13;99593.94;4878555;29;20060;-84
2022/04/24 03:58:37;;;;;;;29.05;11.90;;;;;;;12.57;61.40;99586.50;4878139;29;20478;-84
2022/04/24 04:01:03;;;;;;;27.55;12.10;;;;;;;12.76;60.94;99590.97;4890203;29;20033;-84
2022/04/24 04:03:28;;;;;;;28.85;12.07;;;;;;;12.51;61.40;99593.16;4899652;29;20040;-84
2022/04/24 04:05:53;;;;;;;25.55;11.60;;;;;;;12.41;62.08;99592.31;4900428;29;20040;-84
2022/04/24 04:08:18;;;;;;;26.02;11.65;;;;;;;12.77;60.97;99587.34;4900521;29;20398;-84
2022/04/24 04:10:44;;;;;;;28.73;12.07;;;;;;;12.60;61.50;99589.72;4900439;29;20101;-83
2022/04/24 04:13:09;;;;;;;27.05;11.27;;;;;;;12.59;61.39;99595.94;4900504;29;20032;-83
2022/04/24 04:15:35;;;;;;;30.30;12.18;;;;;;;12.49;61.98;99603.81;4900441;29;20029;-83
2022/04/24 04:18:01;;;;;;;33.35;13.57;;;;;;;12.56;61.54;99604.13;4898910;29;20036;-83
2022/04/24 04:20:26;;;;;;;22.33;10.77;;;;;;;12.49;62.05;99605.63;4900400;29;20039;-82
2022/04/24 04:22:52;;;;;;;23.05;12.38;;;;;;;12.57;61.76;99599.69;4900334;29;20041;-83
2022/04/24 04:25:18;;;;;;;21.45;12.18;;;;;;;12.58;61.38;99604.81;4900254;29;20033;-83
2022/04/24 04:27:44;;;;;;;22.33;11.32;;;;;;;12.50;62.00;99613.41;4900126;29;20020;-82
2022/04/24 04:30:10;;;;;;;29.42;12.27;;;;;;;12.50;61.84;99617.84;4907213;29;20039;-82
2022/04/24 04:32:36;;;;;;;25.95;11.93;;;;;;;12.46;62.02;99617.28;4918895;29;20394;-83
2022/04/24 04:35:02;;;;;;;19.60;11.57;;;;;;;12.51;61.73;99614.22;4918957;29;20027;-83
2022/04/24 04:37:28;;;;;;;22.05;11.15;;;;;;;12.57;61.59;99608.41;4917704;29;20958;-83
2022/04/24 04:39:53;;;;;;;25.17;12.13;;;;;;;12.35;61.64;99616.56;4918895;29;20036;-83
2022/04/24 04:42:19;;;;;;;27.05;10.93;;;;;;;12.37;62.47;99625.16;4918617;29;20039;-83
2022/04/24 04:44:44;;;;;;;29.05;11.93;;;;;;;12.49;61.84;99626.69;4917567;29;20034;-82
2022/04/24 04:47:09;;;;;;;28.92;11.27;;;;;;;12.22;62.64;99620.25;4918534;29;20099;-82
2022/04/24 04:49:35;;;;;;;23.85;10.82;;;;;;;12.30;62.38;99633.59;4917453;29;20032;-82
2022/04/24 04:52:00;;;;;;;29.50;12.77;;;;;;;12.20;62.54;99637.97;4918620;29;20043;-83
2022/04/24 04:54:26;;;;;;;28.77;13.45;;;;;;;11.93;63.62;99635.09;4917329;29;20024;-83
2022/04/24 04:56:51;;;;;;;24.85;11.93;;;;;;;12.21;62.50;99639.63;4918636;29;20475;-83
2022/04/24 04:59:16;;;;;;;30.85;13.73;;;;;;;12.08;62.96;99649.56;4917615;29;20034;-83
2022/04/24 05:01:42;;;;;;;32.22;12.85;;;;;;;11.92;63.71;99654.47;4899300;29;20032;-83
2022/04/24 05:04:07;;;;;;;33.28;12.02;;;;;;;12.09;63.30;99649.44;4898408;29;20030;-83
2022/04/24 05:06:32;;;;;;;24.75;12.82;;;;;;;12.09;63.43;99664.38;4899551;29;20544;-82
2022/04/24 05:08:58;;;;;;;28.48;12.50;;;;;;;12.33;62.72;99660.59;4899467;29;20515;-83
2022/04/24 05:11:23;;;;;;;24.80;11.35;;;;;;;12.24;62.70;99660.44;4899335;29;20128;-83
2022/04/24 05:13:48;;;;;;;31.35;13.20;;;;;;;12.33;62.29;99679.03;4897044;29;20093;-83
2022/04/24 05:16:14;;;;;;;24.20;12.95;;;;;;;12.33;62.03;99673.75;4899399;29;20088;-83
2022/04/24 05:18:39;;;;;;;25.10;12.07;;;;;;;12.25;62.75;99679.69;4899283;29;20075;-83
2022/04/24 05:21:04;;;;;;;27.35;13.75;;;;;;;12.24;62.79;99686.75;4899107;29;20031;-83
2022/04/24 05:23:30;;;;;;;31.77;12.73;;;;;;;12.34;62.44;99691.22;4899179;29;20040;-83
2022/04/24 05:25:55;;;;;;;24.48;12.02;;;;;;;12.48;62.32;99690.88;4898996;29;20029;-83
2022/04/24 05:28:20;;;;;;;21.92;11.85;;;;;;;12.48;62.14;99696.13;4899120;29;20028;-82
2022/04/24 05:30:46;;;;;;;25.05;13.00;;;;;;;12.54;61.71;99695.59;4897342;29;20025;-82
2022/04/24 05:33:17;;;;;;;32.22;12.68;;;;;;;12.33;62.73;99697.47;4899088;29;20072;-82
2022/04/24 05:35:42;;;;;;;31.07;11.77;;;;;;;12.43;62.25;99708.84;4898956;29;20024;-82
2022/04/24 05:38:07;;;;;;;24.38;11.45;;;;;;;12.50;62.28;99715.25;4897786;29;20440;-84
2022/04/24 05:40:32;;;;;;;27.10;12.57;;;;;;;12.55;62.46;99714.84;4898826;29;20472;-84
2022/04/24 05:42:58;;;;;;;27.38;12.93;;;;;;;12.66;62.19;99702.41;4899048;29;20040;-83
2022/04/24 05:45:24;;;;;;;28.55;13.00;;;;;;;12.66;61.82;99715.56;4898835;29;20471;-82
2022/04/24 05:47:51;;;;;;;29.27;13.75;;;;;;;12.54;62.45;99721.91;4898963;29;20409;-82
2022/04/24 05:50:16;;;;;;;30.88;13.15;;;;;;;12.57;62.63;99719.00;4898626;29;20368;-82
2022/04/24 05:52:43;;;;;;;31.10;12.52;;;;;;;12.96;61.52;99718.28;4898562;29;20044;-82
2022/04/24 05:55:08;;;;;;;26.38;12.55;;;;;;;12.86;61.64;99724.34;4898693;29;20443;-82
2022/04/24 05:57:35;;;;;;;22.88;12.23;;;;;;;13.08;61.15;99723.28;4898483;29;20069;-83
2022/04/24 06:00:00;;;;;;;29.30;12.60;;;;;;;13.09;61.24;99724.94;4898445;29;20484;-82
2022/04/24 06:02:26;;;;;;;29.92;12.57;;;;;;;12.87;61.94;99730.44;4896509;29;20032;-82
2022/04/24 06:04:53;;;;;;;24.73;11.93;;;;;;;13.49;60.06;99718.75;4897878;29;20039;-82
2022/04/24 06:07:19;;;;;;;35.97;13.40;;;;;;;13.48;59.91;99730.25;4898101;29;20056;-82
2022/04/24 06:09:44;;;;;;;37.63;14.00;;;;;;;13.30;60.61;99721.38;4897144;29;20080;-82
2022/04/24 06:12:09;;;;;;;35.20;12.75;;;;;;;13.15;60.56;99725.34;4898428;29;20196;-83
2022/04/24 06:14:35;;;;;;;25.67;11.80;;;;;;;13.40;60.43;99727.47;4898181;29;20017;-82
2022/04/24 06:17:00;;;;;;;29.70;12.13;;;;;;;13.78;59.49;99730.22;4898200;29;20402;-82
2022/04/24 06:19:26;;;;;;;29.58;12.13;;;;;;;13.47;60.03;99739.16;4898264;29;20485;-82
2022/04/24 06:21:52;;;;;;;34.83;12.23;;;;;;;13.49;60.12;99741.66;4897963;29;20155;-83
2022/04/24 06:24:17;;;;;;;32.55;12.45;;;;;;;13.63;59.40;99735.94;4895781;29;20686;-83
2022/04/24 06:26:44;;;;;;;23.48;12.43;;;;;;;13.37;60.19;99748.88;4897195;29;20157;-82
2022/04/24 06:29:10;;;;;;;28.05;10.52;;;;;;;13.73;59.73;99745.66;4897116;29;20040;-83
2022/04/24 06:31:35;;;;;;;28.20;12.05;;;;;;;13.51;59.89;99746.75;4896832;29;20483;-83
2022/04/24 06:34:00;;;;;;;32.50;11.27;;;;;;;13.50;59.95;99756.50;4897394;29;20420;-83
2022/04/24 06:36:25;;;;;;;27.60;13.45;;;;;;;13.86;59.34;99751.47;4897490;29;20522;-84
2022/04/24 06:38:51;;;;;;;30.02;10.93;;;;;;;13.95;59.20;99760.34;4895763;29;20115;-83
2022/04/24 06:41:16;;;;;;;32.58;11.88;;;;;;;13.57;60.12;99754.97;4897725;29;20123;-84
2022/04/24 06:43:41;;;;;;;29.42;11.05;;;;;;;13.81;59.22;99757.16;4897734;29;20119;-84
2022/04/24 06:46:07;;;;;;;29.92;12.48;;;;;;;13.36;60.33;99756.91;4897145;29;20107;-83
2022/04/24 06:48:32;;;;;;;27.08;11.43;;;;;;;13.17;61.11;99755.03;4897399;29;20111;-83
2022/04/24 06:50:57;;;;;;;28.77;10.82;;;;;;;13.31;60.71;99757.34;4897426;29;20020;-84
2022/04/24 06:53:23;;;;;;;24.60;10.73;;;;;;;13.45;60.08;99761.38;4897465;29;20052;-83
2022/04/24 06:55:49;;;;;;;31.35;11.60;;;;;;;13.49;60.39;99765.38;4895255;29;20111;-85
2022/04/24 06:58:17;;;;;;;25.65;12.02;;;;;;;13.56;59.89;99779.66;4896844;29;20037;-85
2022/04/24 07:00:44;;;;;;;35.05;12.40;;;;;;;13.46;60.24;99773.56;4884883;29;20061;-83
2022/04/24 07:03:20;;;;;;;27.48;10.52;;;;;;;13.66;59.71;99784.94;4896529;29;20059;-84
2022/04/24 07:05:47;;;;;;;32.03;10.63;;;;;;;13.82;59.31;99772.03;4895851;29;20029;-84
2022/04/24 07:08:13;;;;;;;26.65;10.07;;;;;;;14.21;58.78;99779.88;4897202;29;20099;-83
2022/04/24 07:10:38;;;;;;;21.25;9.45;;;;;;;14.44;57.94;99780.34;4896175;29;20120;-83
2022/04/24 07:13:06;;;;;;;30.30;9.85;;;;;;;14.43;57.43;99783.13;4897250;29;20033;-83
2022/04/24 07:15:34;;;;;;;30.23;10.40;;;;;;;14.27;57.67;99787.22;4895771;29;20033;-84
2022/04/24 07:18:00;;;;;;;32.35;10.70;;;;;;;14.49;57.18;99801.06;4897010;29;20069;-84
2022/04/24 07:20:27;;;;;;;27.35;10.10;;;;;;;14.17;57.91;99789.03;4896711;29;20440;-84
2022/04/24 07:22:58;;;;;;;29.80;11.23;;;;;;;14.16;58.31;99791.81;4896746;29;20431;-84
2022/04/24 07:25:28;;;;;;;31.27;11.00;;;;;;;14.37;57.35;99794.28;4895888;29;20548;-84
2022/04/24 07:27:53;;;;;;;24.65;10.63;;;;;;;14.54;56.83;99804.09;4896551;29;20150;-83
2022/04/24 07:30:20;;;;;;;26.67;10.73;;;;;;;14.49;57.17;99811.63;4895876;29;20552;-83
2022/04/24 07:32:54;;;;;;;31.83;9.95;;;;;;;14.61;56.79;99813.16;4896263;29;20029;-83
2022/04/24 07:35:25;;;;;;;24.67;10.02;;;;;;;14.53;56.74;99814.81;4894594;29;20024;-84
2022/04/24 07:37:51;;;;;;;26.88;9.82;;;;;;;14.48;56.67;99817.88;4896243;29;20649;-84
2022/04/24 07:40:22;;;;;;;26.58;11.00;;;;;;;15.03;55.69;99810.03;4894751;29;20292;-84
2022/04/24 07:42:49;;;;;;;24.77;9.30;;;;;;;15.61;55.12;99810.63;4896109;29;20063;-84
2022/04/24 07:45:18;;;;;;;17.50;9.00;;;;;;;15.67;54.23;99817.97;4896293;29;20672;-84
2022/04/24 07:47:45;;;;;;;25.15;10.50;;;;;;;15.59;54.56;99817.88;4896870;29;20024;-84
2022/04/24 07:50:11;;;;;;;19.42;9.05;;;;;;;15.63;54.88;99819.25;4896768;29;20024;-84
2022/04/24 07:52:36;;;;;;;19.92;8.45;;;;;;;16.82;52.39;99810.84;4897124;29;20036;-84
2022/04/24 07:55:02;;;;;;;27.02;9.38;;;;;;;17.15;50.73;99816.28;4895937;29;20032;-84
2022/04/24 07:57:27;;;;;;;23.17;9.57;;;;;;;17.18;49.89;99818.59;4896994;29;20060;-84
2022/04/24 07:59:53;;;;;;;26.27;9.73;;;;;;;17.14;50.18;99825.22;4896025;29;20040;-84
2022/04/24 08:02:18;;;;;;;25.00;8.55;;;;;;;17.29;49.47;99820.94;4895742;29;20415;-84
2022/04/24 08:04:43;;;;;;;19.65;7.88;;;;;;;18.30;48.05;99811.88;4896711;29;20396;-84
2022/04/24 08:07:09;;;;;;;20.02;7.72;;;;;;;18.87;46.81;99812.75;4896828;29;20032;-84
2022/04/24 08:09:35;;;;;;;18.73;7.97;;;;;;;19.68;44.55;99811.44;4895964;29;20472;-84
2022/04/24 08:12:00;;;;;;;23.85;7.78;;;;;;;19.98;43.89;99811.56;4896502;29;20036;-84
2022/04/24 08:14:26;;;;;;;26.60;9.57;;;;;;;20.69;42.14;99824.56;4895912;29;20032;-84
2022/04/24 08:16:51;;;;;;;20.00;8.27;;;;;;;21.39;41.71;99821.31;4896267;29;20034;-84
2022/04/24 08:19:16;;;;;;;15.63;7.25;;;;;;;22.08;39.93;99822.63;4896509;29;20080;-84
2022/04/24 08:21:42;;;;;;;15.15;6.55;;;;;;;22.33;39.83;99817.72;4896154;29;20072;-84
2022/04/24 08:24:07;;;;;;;21.50;7.63;;;;;;;23.28;38.28;99812.63;4895844;29;20115;-85
2022/04/24 08:26:32;;;;;;;25.30;6.70;;;;;;;23.76;37.65;99825.09;4894935;29;20112;-84
2022/04/24 08:28:58;;;;;;;19.25;6.93;;;;;;;23.63;37.45;99817.84;4895825;29;20064;-82
2022/04/24 08:31:23;;;;;;;28.85;6.82;;;;;;;23.66;36.40;99822.81;4896475;29;20045;-84
2022/04/24 08:33:50;;;;;;;13.75;6.30;;;;;;;23.86;36.27;99832.75;4894971;29;20032;-82
2022/04/24 08:36:15;;;;;;;22.40;7.40;;;;;;;24.00;35.90;99814.81;4896432;29;20029;-82
2022/04/24 08:38:40;;;;;;;15.70;6.53;;;;;;;23.87;35.41;99826.34;4895933;29;20471;-83
2022/04/24 08:41:08;;;;;;;17.95;6.35;;;;;;;24.12;35.02;99822.03;4896371;29;20028;-83
2022/04/24 08:43:34;;;;;;;23.27;7.30;;;;;;;23.61;35.50;99832.47;4895655;29;20092;-82
2022/04/24 08:46:02;;;;;;;20.58;6.95;;;;;;;24.20;35.06;99822.84;4895987;29;20052;-83
2022/04/24 08:48:28;;;;;;;19.00;6.10;;;;;;;23.64;35.99;99840.13;4897511;29;20107;-83
2022/04/24 08:50:55;;;;;;;27.42;7.63;;;;;;;22.96;36.81;99839.03;4899688;29;20115;-83
2022/04/24 08:53:21;;;;;;;29.95;7.75;;;;;;;23.36;35.81;99831.19;4899225;29;20029;-83
2022/04/24 08:55:46;;;;;;;19.85;6.82;;;;;;;24.67;34.65;99834.38;4899818;29;20025;-83
2022/04/24 08:58:12;;;;;;;18.65;6.28;;;;;;;23.97;35.92;99850.06;4898741;29;20040;-83
2022/04/24 09:00:38;;;;;;;17.55;7.30;;;;;;;23.97;35.68;99842.03;4897594;29;20040;-83
2022/04/24 09:03:04;;;;;;;20.17;7.57;;;;;;;23.22;36.23;99842.88;4894177;29;20124;-83
2022/04/24 09:05:30;;;;;;;16.77;6.05;;;;;;;22.26;37.71;99858.78;4895057;29;20088;-83
2022/04/24 09:08:09;;;;;;;16.63;6.03;;;;;;;22.49;38.20;99854.03;4894325;29;20491;-83
2022/04/24 09:10:51;;;;;;;14.60;5.50;;;;;;;24.44;35.65;99838.28;4894628;29;20076;-83
2022/04/24 09:13:31;;;;;;;22.25;6.32;;;;;;;24.36;35.41;99846.56;4894338;29;20028;-83
2022/04/24 09:15:58;;;;;;;16.02;6.10;;;;;;;24.47;35.18;99855.84;4889041;29;20123;-83
2022/04/24 09:18:35;;;;;;;20.17;6.22;;;;;;;25.73;33.62;99847.34;4892894;29;20424;-83
2022/04/24 09:21:00;;;;;;;16.45;6.93;;;;;;;25.69;33.01;99847.97;4894230;29;20040;-84
2022/04/24 09:23:36;;;;;;;14.75;5.20;;;;;;;25.98;33.21;99862.69;4893676;29;20036;-83
2022/04/24 09:26:02;;;;;;;15.63;5.85;;;;;;;25.93;32.44;99854.47;4893802;29;20044;-84
2022/04/24 09:28:38;;;;;;;15.02;6.47;;;;;;;26.63;31.45;99842.69;4893036;29;20020;-83
2022/04/24 09:31:05;;;;;;;14.85;6.05;;;;;;;26.30;32.43;99839.25;4893785;29;20036;-84
2022/04/24 09:33:38;;;;;;;14.55;5.90;;;;;;;26.88;31.82;99840.75;4893680;29;20028;-84
2022/04/24 09:36:04;;;;;;;19.48;6.40;;;;;;;27.26;31.57;99842.38;4894237;29;20040;-84
2022/04/24 09:38:29;;;;;;;17.15;6.30;;;;;;;27.62;30.66;99850.59;4893152;29;20025;-84
2022/04/24 09:40:55;;;;;;;14.07;5.82;;;;;;;28.09;30.40;99843.44;4893360;29;20033;-84
2022/04/24 09:43:20;;;;;;;13.70;5.10;;;;;;;28.31;30.56;99845.56;4893294;29;20051;-84
2022/04/24 09:45:50;;;;;;;14.82;5.10;;;;;;;29.07;29.46;99845.63;4891773;29;20427;-84
2022/04/24 09:48:21;;;;;;;15.00;5.57;;;;;;;28.61;30.00;99841.94;4892532;29;20129;-84
2022/04/24 09:50:50;;;;;;;12.10;5.00;;;;;;;28.08;29.32;99858.00;4894034;29;20060;-83
2022/04/24 09:53:19;;;;;;;12.50;4.90;;;;;;;28.31;29.02;99853.66;4891223;29;20546;-83
2022/04/24 09:55:45;;;;;;;13.45;5.15;;;;;;;28.43;29.58;99859.88;4897443;29;20053;-83
2022/04/24 09:58:14;;;;;;;14.93;5.35;;;;;;;28.60;29.61;99861.91;4909931;29;20487;-83
2022/04/24 10:00:41;;;;;;;17.02;5.18;;;;;;;29.65;28.77;99857.28;4896680;29;20040;-83
2022/04/24 10:03:08;;;;;;;13.02;4.90;;;;;;;29.70;28.70;99856.53;4896908;29;20029;-83
2022/04/24 10:05:38;;;;;;;13.30;5.72;;;;;;;30.39;27.64;99854.47;4896736;29;20032;-84
2022/04/24 10:08:06;;;;;;;11.45;4.82;;;;;;;30.15;27.14;99856.50;4897086;29;20025;-84
2022/04/24 10:10:31;;;;;;;15.20;5.43;;;;;;;29.37;27.51;99852.72;4896911;29;20072;-84
2022/04/24 10:13:07;;;;;;;11.98;4.38;;;;;;;29.66;27.60;99854.31;4897040;29;20178;-84
2022/04/24 10:15:33;;;;;;;16.10;5.00;;;;;;;29.87;26.92;99854.69;4897150;29;20039;-84
2022/04/24 10:18:21;;;;;;;12.88;4.65;;;;;;;29.67;28.23;99872.19;4897327;29;20032;-84
2022/04/24 10:21:08;;;;;;;11.32;4.90;;;;;;;29.26;27.58;99863.31;4893700;29;20040;-84
2022/04/24 10:23:35;;;;;;;9.18;4.20;;;;;;;29.76;27.54;99861.84;4896943;29;20036;-84
2022/04/24 10:26:01;;;;;;;14.77;4.35;;;;;;;30.28;28.30;99871.59;4894922;29;20163;-84
2022/04/24 10:28:40;;;;;;;11.95;4.85;;;;;;;30.20;28.20;99866.59;4895285;29;20032;-84
2022/04/24 10:31:07;;;;;;;8.75;4.47;;;;;;;30.72;26.65;99868.19;4894810;29;20040;-84
2022/04/24 10:33:35;;;;;;;12.43;3.95;;;;;;;30.69;27.28;99866.81;4896292;29;20051;-84
2022/04/24 10:36:14;;;;;;;9.68;4.75;;;;;;;30.18;27.37;99866.84;4897051;29;20264;-84
2022/04/24 10:38:54;;;;;;;11.23;4.05;;;;;;;30.26;28.18;99865.63;4897018;29;20085;-84
2022/04/24 10:41:22;;;;;;;12.57;4.88;;;;;;;31.00;25.52;99870.78;4896825;29;20055;-84
2022/04/24 10:43:51;;;;;;;13.95;5.20;;;;;;;30.64;26.11;99875.66;4895559;29;20057;-83
2022/04/24 10:46:32;;;;;;;11.27;4.72;;;;;;;31.30;25.48;99874.06;4897016;29;20025;-83
2022/04/24 10:49:11;;;;;;;13.30;4.93;;;;;;;31.15;25.62;99872.81;4896809;29;20036;-83
2022/04/24 10:51:39;;;;;;;13.75;5.20;;;;;;;30.25;27.21;99872.09;4894573;29;20038;-83
2022/04/24 10:54:08;;;;;;;11.70;4.03;;;;;;;30.30;27.34;99872.16;4896692;29;20502;-83
2022/04/24 10:56:35;;;;;;;9.20;4.80;;;;;;;31.12;26.91;99876.03;4896849;29;20140;-84
2022/04/24 10:59:12;;;;;;;11.25;4.90;;;;;;;31.04;26.78;99871.06;4896989;29;20065;-83
2022/04/24 11:01:41;;;;;;;9.57;4.18;;;;;;;31.06;25.36;99874.34;4893956;29;20541;-83
2022/04/24 11:04:09;;;;;;;9.95;4.93;;;;;;;30.07;25.88;99861.50;4892916;29;20040;-84
2022/04/24 11:06:34;;;;;;;6.97;3.70;;;;;;;29.91;28.26;99869.38;4896284;29;20117;-84
2022/04/24 11:09:12;;;;;;;10.57;4.95;;;;;;;30.15;26.23;99861.91;4896279;29;20471;-83
2022/04/24 11:11:47;;;;;;;10.65;4.18;;;;;;;30.53;27.00;99863.06;4895741;29;20024;-84
2022/04/24 11:14:19;;;;;;;8.43;4.22;;;;;;;30.15;26.91;99866.50;4896527;29;20032;-85
2022/04/24 11:16:51;;;;;;;12.48;4.35;;;;;;;30.73;27.44;99865.25;4895764;29;20052;-85
2022/04/24 11:19:37;;;;;;;7.20;3.97;;;;;;;30.88;26.59;99866.50;4896043;29;20398;-86